createdAt,value
2018-07-14T00:01:12.116Z,23.63
2018-07-14T00:03:40.279Z,23.71
2018-07-14T00:06:08.450Z,23.77
2018-07-14T00:08:36.726Z,23.23
2018-07-14T00:11:04.833Z,23.74
2018-07-14T00:13:33.082Z,23.58
2018-07-14T00:16:01.139Z,23.25
2018-07-14T00:18:29.223Z,23.45
2018-07-14T00:20:57.286Z,23.25
2018-07-14T00:23:25.504Z,23.33
2018-07-14T00:25:58.965Z,23.67
2018-07-14T00:28:27.108Z,23.64
2018-07-14T00:30:55.158Z,23.78
2018-07-14T00:33:23.233Z,23.59
2018-07-14T00:35:51.341Z,23.37
2018-07-14T00:38:19.469Z,23.50
2018-07-14T00:40:47.585Z,23.41
2018-07-14T00:43:15.698Z,23.59
2018-07-14T00:45:43.796Z,23.51
2018-07-14T00:48:12.117Z,23.39
2018-07-14T00:50:40.401Z,23.57
2018-07-14T00:53:08.527Z,23.40
2018-07-14T00:55:36.709Z,23.65
2018-07-14T00:58:05.067Z,23.80
2018-07-14T01:00:33.272Z,23.52
2018-07-14T01:03:01.385Z,23.54
2018-07-14T01:05:29.441Z,23.44
2018-07-14T01:07:57.630Z,23.62
2018-07-14T01:10:25.731Z,23.65
2018-07-14T01:12:53.823Z,23.43
2018-07-14T01:15:21.896Z,23.42
2018-07-14T01:17:50.074Z,23.42
2018-07-14T01:20:18.128Z,23.27
2018-07-14T01:22:46.286Z,23.24
2018-07-14T01:25:14.469Z,23.23
2018-07-14T01:27:42.694Z,23.40
2018-07-14T01:30:10.892Z,23.05
2018-07-14T01:32:39.031Z,23.19
2018-07-14T01:35:07.642Z,23.09
2018-07-14T01:37:35.852Z,23.24
2018-07-14T01:40:04.020Z,23.16
2018-07-14T01:42:32.305Z,23.21
2018-07-14T01:45:00.554Z,23.20
2018-07-14T01:47:29.077Z,23.25
2018-07-14T01:49:57.251Z,22.90
2018-07-14T01:52:25.458Z,22.94
2018-07-14T01:54:53.543Z,22.84
2018-07-14T01:57:21.716Z,22.89
2018-07-14T01:59:50.049Z,22.57
2018-07-14T02:02:18.183Z,22.68
2018-07-14T02:04:46.277Z,22.72
2018-07-14T02:07:14.532Z,22.15
2018-07-14T02:09:42.611Z,22.67
2018-07-14T02:12:10.807Z,22.65
2018-07-14T02:14:38.906Z,22.25
2018-07-14T02:17:06.978Z,22.59
2018-07-14T02:19:35.045Z,22.90
2018-07-14T02:22:03.154Z,22.66
2018-07-14T02:24:32.543Z,22.87
2018-07-14T02:27:00.605Z,22.68
2018-07-14T02:29:28.698Z,22.45
2018-07-14T02:31:56.825Z,22.56
2018-07-14T02:34:24.931Z,22.53
2018-07-14T02:36:53.280Z,22.62
2018-07-14T02:39:21.351Z,22.35
2018-07-14T02:41:50.343Z,22.19
2018-07-14T02:44:18.882Z,22.19
2018-07-14T02:46:47.628Z,22.42
2018-07-14T02:49:15.775Z,22.30
2018-07-14T02:51:44.128Z,22.17
2018-07-14T02:54:12.240Z,21.97
2018-07-14T02:56:40.680Z,21.99
2018-07-14T02:59:08.973Z,22.33
2018-07-14T03:01:37.030Z,22.38
2018-07-14T03:04:05.145Z,22.24
2018-07-14T03:06:34.112Z,22.53
2018-07-14T03:09:02.255Z,22.42
2018-07-14T03:11:32.105Z,22.30
2018-07-14T03:14:00.238Z,22.26
2018-07-14T03:16:28.619Z,22.24
2018-07-14T03:18:56.807Z,22.12
2018-07-14T03:21:24.882Z,21.92
2018-07-14T03:23:52.996Z,22.28
2018-07-14T03:26:21.087Z,21.86
2018-07-14T03:28:49.684Z,21.86
2018-07-14T03:31:17.976Z,22.01
2018-07-14T03:33:46.220Z,22.24
2018-07-14T03:36:14.303Z,22.22
2018-07-14T03:38:42.387Z,22.03
2018-07-14T03:41:10.861Z,21.69
2018-07-14T03:43:39.027Z,22.25
2018-07-14T03:46:07.106Z,22.25
2018-07-14T03:48:35.343Z,22.18
2018-07-14T03:51:03.483Z,22.08
2018-07-14T03:53:31.572Z,22.23
2018-07-14T03:55:59.699Z,22.01
2018-07-14T03:58:27.811Z,22.13
2018-07-14T04:00:55.880Z,22.20
2018-07-14T04:03:24.209Z,22.28
2018-07-14T04:05:52.276Z,22.35
2018-07-14T04:08:20.403Z,22.30
2018-07-14T04:10:49.134Z,22.20
2018-07-14T04:13:17.228Z,21.95
2018-07-14T04:15:45.493Z,22.05
2018-07-14T04:18:13.571Z,22.02
2018-07-14T04:20:41.958Z,22.10
2018-07-14T04:23:10.957Z,22.02
2018-07-14T04:25:39.112Z,21.65
2018-07-14T04:28:07.227Z,21.85
2018-07-14T04:30:35.351Z,21.72
2018-07-14T04:33:03.521Z,21.90
2018-07-14T04:35:31.614Z,21.78
2018-07-14T04:37:59.742Z,22.00
2018-07-14T04:40:27.813Z,22.06
2018-07-14T04:42:56.015Z,22.14
2018-07-14T04:45:24.134Z,21.86
2018-07-14T04:47:52.395Z,21.98
2018-07-14T04:50:20.499Z,21.75
2018-07-14T04:52:48.643Z,21.81
2018-07-14T04:55:16.770Z,21.87
2018-07-14T04:57:45.518Z,21.48
2018-07-14T05:00:13.643Z,21.91
2018-07-14T05:02:41.761Z,22.01
2018-07-14T05:05:09.963Z,21.90
2018-07-14T05:07:38.201Z,22.02
2018-07-14T05:10:06.428Z,21.96
2018-07-14T05:12:34.654Z,21.86
2018-07-14T05:15:02.799Z,21.65
2018-07-14T05:17:30.922Z,21.56
2018-07-14T05:19:58.999Z,21.19
2018-07-14T05:22:27.506Z,21.29
2018-07-14T05:24:55.630Z,21.84
2018-07-14T05:27:23.847Z,22.12
2018-07-14T05:29:51.967Z,21.95
2018-07-14T05:32:20.141Z,22.27
2018-07-14T05:34:48.759Z,22.30
2018-07-14T05:37:16.941Z,22.32
2018-07-14T05:39:45.031Z,21.95
2018-07-14T05:42:14.119Z,22.03
2018-07-14T05:44:42.347Z,22.08
2018-07-14T05:47:11.164Z,22.30
2018-07-14T05:49:39.333Z,22.38
2018-07-14T05:52:07.391Z,22.40
2018-07-14T05:54:35.655Z,22.34
2018-07-14T05:57:03.711Z,21.84
2018-07-14T05:59:31.794Z,22.05
2018-07-14T06:01:59.843Z,22.11
2018-07-14T06:04:27.952Z,21.95
2018-07-14T06:06:56.108Z,22.32
2018-07-14T06:09:24.192Z,22.43
2018-07-14T06:11:52.324Z,22.43
2018-07-14T06:14:20.504Z,22.33
2018-07-14T06:16:48.545Z,22.26
2018-07-14T06:19:16.711Z,22.64
2018-07-14T06:21:44.790Z,22.63
2018-07-14T06:24:12.931Z,22.93
2018-07-14T06:26:41.351Z,22.81
2018-07-14T06:29:09.434Z,22.94
2018-07-14T06:31:37.516Z,23.11
2018-07-14T06:34:06.650Z,23.01
2018-07-14T06:36:34.734Z,22.90
2018-07-14T06:39:02.823Z,23.22
2018-07-14T06:41:30.925Z,22.89
2018-07-14T06:43:59.025Z,22.95
2018-07-14T06:46:27.618Z,22.88
2018-07-14T06:48:55.846Z,22.96
2018-07-14T06:51:24.092Z,22.98
2018-07-14T06:53:52.160Z,23.03
2018-07-14T06:56:20.278Z,23.18
2018-07-14T06:58:48.440Z,22.98
2018-07-14T07:01:16.552Z,23.21
2018-07-14T07:03:44.647Z,23.44
2018-07-14T07:06:12.927Z,23.44
2018-07-14T07:08:41.599Z,23.44
2018-07-14T07:11:09.731Z,23.41
2018-07-14T07:13:37.901Z,23.48
2018-07-14T07:16:06.031Z,23.57
2018-07-14T07:18:34.143Z,23.66
2018-07-14T07:21:02.250Z,23.61
2018-07-14T07:23:30.520Z,23.66
2018-07-14T07:25:58.677Z,23.81
2018-07-14T07:28:26.799Z,23.88
2018-07-14T07:30:54.992Z,23.84
2018-07-14T07:33:23.085Z,23.84
2018-07-14T07:35:51.203Z,23.85
2018-07-14T07:38:19.257Z,23.84
2018-07-14T07:40:47.384Z,23.76
2018-07-14T07:43:15.489Z,23.87
2018-07-14T07:45:43.586Z,24.04
2018-07-14T07:48:11.667Z,24.13
2018-07-14T07:50:39.774Z,24.20
2018-07-14T07:53:07.851Z,24.10
2018-07-14T07:55:35.935Z,24.27
2018-07-14T07:58:04.706Z,24.27
2018-07-14T08:00:32.893Z,24.34
2018-07-14T08:03:01.057Z,24.39
2018-07-14T08:05:29.182Z,24.46
2018-07-14T08:07:57.259Z,24.49
2018-07-14T08:10:25.360Z,24.59
2018-07-14T08:12:53.596Z,24.68
2018-07-14T08:15:21.789Z,24.68
2018-07-14T08:17:50.296Z,24.72
2018-07-14T08:20:19.512Z,24.71
2018-07-14T08:22:47.799Z,24.83
2018-07-14T08:25:16.175Z,24.88
2018-07-14T08:27:44.274Z,25.00
2018-07-14T08:30:12.401Z,25.05
2018-07-14T08:32:40.496Z,25.03
2018-07-14T08:35:08.648Z,25.20
2018-07-14T08:37:39.549Z,25.19
2018-07-14T08:40:07.754Z,25.33
2018-07-14T08:42:35.983Z,25.39
2018-07-14T08:45:04.139Z,25.45
2018-07-14T08:47:32.249Z,25.39
2018-07-14T08:50:00.387Z,25.47
2018-07-14T08:52:28.504Z,25.44
2018-07-14T08:54:56.610Z,25.44
2018-07-14T08:57:24.722Z,25.63
2018-07-14T08:59:52.828Z,25.68
2018-07-14T09:02:20.892Z,25.80
2018-07-14T09:04:49.064Z,25.82
2018-07-14T09:07:17.107Z,25.89
2018-07-14T09:09:45.187Z,25.90
2018-07-14T09:12:13.294Z,25.90
2018-07-14T09:14:42.140Z,25.97
2018-07-14T09:17:10.537Z,26.11
2018-07-14T09:19:38.632Z,26.13
2018-07-14T09:22:06.701Z,26.19
2018-07-14T09:24:34.827Z,26.27
2018-07-14T09:27:03.049Z,26.31
2018-07-14T09:29:31.388Z,26.14
2018-07-14T09:31:59.514Z,26.20
2018-07-14T09:34:27.713Z,26.42
2018-07-14T09:36:55.873Z,26.57
2018-07-14T09:39:23.933Z,26.66
2018-07-14T09:41:51.994Z,26.70
2018-07-14T09:44:20.260Z,26.83
2018-07-14T09:46:48.917Z,26.85
2018-07-14T09:49:16.978Z,26.85
2018-07-14T09:51:45.112Z,26.91
2018-07-14T09:54:13.567Z,27.08
2018-07-14T09:56:42.202Z,27.07
2018-07-14T09:59:10.316Z,27.00
2018-07-14T10:01:39.294Z,27.15
2018-07-14T10:04:07.840Z,27.26
2018-07-14T10:06:36.116Z,27.05
2018-07-14T10:09:04.735Z,27.19
2018-07-14T10:11:32.893Z,27.08
2018-07-14T10:14:00.983Z,27.34
2018-07-14T10:16:29.156Z,27.51
2018-07-14T10:18:57.242Z,27.61
2018-07-14T10:21:25.530Z,27.74
2018-07-14T10:23:53.641Z,27.56
2018-07-14T10:26:22.281Z,27.90
2018-07-14T10:28:50.492Z,28.05
2018-07-14T10:31:18.576Z,28.11
2018-07-14T10:33:46.936Z,28.22
2018-07-14T10:36:15.808Z,28.27
2018-07-14T10:38:43.974Z,28.26
2018-07-14T10:41:12.576Z,28.28
2018-07-14T10:43:40.732Z,28.48
2018-07-14T10:46:08.762Z,28.51
2018-07-14T10:48:36.942Z,28.41
2018-07-14T10:51:05.000Z,28.60
2018-07-14T10:53:33.055Z,28.73
2018-07-14T10:56:01.175Z,28.85
2018-07-14T10:58:29.248Z,29.00
2018-07-14T11:00:57.324Z,28.43
2018-07-14T11:03:25.439Z,29.18
2018-07-14T11:05:53.715Z,29.15
2018-07-14T11:08:22.126Z,29.35
2018-07-14T11:10:50.272Z,29.55
2018-07-14T11:13:20.618Z,29.35
2018-07-14T11:15:48.661Z,29.02
2018-07-14T11:18:41.406Z,29.27
2018-07-14T11:21:22.869Z,29.78
2018-07-14T11:23:51.100Z,29.83
2018-07-14T11:26:19.221Z,29.64
2018-07-14T11:28:47.392Z,29.69
2018-07-14T11:31:15.764Z,29.64
2018-07-14T11:33:43.968Z,30.23
2018-07-14T11:36:12.779Z,30.63
2018-07-14T11:38:41.603Z,31.00
2018-07-14T11:41:09.786Z,31.35
2018-07-14T11:43:37.879Z,31.69
2018-07-14T11:46:05.992Z,32.14
2018-07-14T11:48:34.088Z,32.50
2018-07-14T11:51:02.379Z,33.07
2018-07-14T11:53:30.515Z,33.34
2018-07-14T11:55:58.836Z,33.91
2018-07-14T11:58:27.082Z,34.29
2018-07-14T12:00:55.432Z,35.04
2018-07-14T12:03:23.846Z,34.73
2018-07-14T12:05:51.999Z,35.92
2018-07-14T12:08:20.303Z,36.06
2018-07-14T12:10:48.520Z,37.59
2018-07-14T12:13:16.658Z,37.13
2018-07-14T12:15:44.730Z,35.99
2018-07-14T12:18:19.215Z,37.88
2018-07-14T12:20:47.279Z,36.25
2018-07-14T12:23:15.390Z,37.25
2018-07-14T12:25:43.508Z,36.69
2018-07-14T12:28:12.123Z,36.47
2018-07-14T12:30:40.296Z,37.28
2018-07-14T12:33:08.468Z,37.20
2018-07-14T12:35:36.574Z,37.74
2018-07-14T12:38:04.768Z,37.72
2018-07-14T12:40:32.883Z,37.73
2018-07-14T12:43:01.047Z,38.75
2018-07-14T12:45:29.270Z,39.35
2018-07-14T12:47:57.405Z,40.39
2018-07-14T12:50:25.670Z,39.75
2018-07-14T12:53:02.248Z,38.10
2018-07-14T12:55:43.270Z,37.42
2018-07-14T12:58:11.863Z,38.48
2018-07-14T13:00:39.983Z,39.12
2018-07-14T13:03:09.310Z,38.34
2018-07-14T13:05:37.410Z,39.23
2018-07-14T13:08:05.867Z,40.13
2018-07-14T13:10:34.008Z,40.87
2018-07-14T13:13:02.103Z,40.98
2018-07-14T13:15:30.203Z,40.07
2018-07-14T13:17:58.381Z,40.51
2018-07-14T13:20:26.516Z,40.45
2018-07-14T13:22:54.719Z,40.17
2018-07-14T13:25:22.826Z,42.77
2018-07-14T13:27:50.947Z,42.29
2018-07-14T13:30:19.032Z,42.23
2018-07-14T13:32:47.098Z,42.55
2018-07-14T13:35:15.230Z,43.89
2018-07-14T13:37:43.273Z,43.12
2018-07-14T13:40:11.357Z,41.83
2018-07-14T13:42:39.472Z,43.38
2018-07-14T13:45:07.543Z,38.73
2018-07-14T13:47:35.746Z,38.69
2018-07-14T13:50:03.994Z,37.32
2018-07-14T13:52:32.355Z,37.80
2018-07-14T13:55:01.703Z,37.25
2018-07-14T13:57:30.032Z,38.70
2018-07-14T13:59:58.304Z,37.71
2018-07-14T14:02:26.607Z,38.84
2018-07-14T14:04:55.088Z,39.08
2018-07-14T14:07:25.413Z,38.24
2018-07-14T14:09:53.787Z,36.97
2018-07-14T14:12:22.154Z,36.51
2018-07-14T14:14:50.546Z,35.98
2018-07-14T14:17:19.317Z,35.68
2018-07-14T14:19:47.769Z,35.68
2018-07-14T14:22:16.036Z,35.09
2018-07-14T14:24:44.274Z,34.87
2018-07-14T14:27:13.372Z,35.15
2018-07-14T14:29:41.832Z,34.92
2018-07-14T14:32:10.106Z,35.37
2018-07-14T14:34:38.276Z,37.19
2018-07-14T14:37:06.554Z,38.89
2018-07-14T14:39:35.630Z,39.55
2018-07-14T14:42:05.714Z,39.25
2018-07-14T14:44:35.330Z,36.74
2018-07-14T14:47:03.688Z,35.67
2018-07-14T14:49:31.956Z,36.11
2018-07-14T14:52:00.255Z,37.57
2018-07-14T14:54:28.754Z,37.39
2018-07-14T14:56:56.872Z,36.76
2018-07-14T14:59:25.465Z,36.07
2018-07-14T15:01:53.828Z,36.45
2018-07-14T15:04:22.227Z,36.63
2018-07-14T15:06:50.737Z,38.25
2018-07-14T15:09:18.962Z,36.76
2018-07-14T15:11:47.328Z,38.44
2018-07-14T15:14:15.760Z,38.14
2018-07-14T15:16:45.633Z,36.22
2018-07-14T15:19:14.306Z,36.75
2018-07-14T15:21:42.824Z,35.77
2018-07-14T15:24:11.068Z,36.26
2018-07-14T15:26:39.793Z,35.64
2018-07-14T15:29:08.346Z,35.16
2018-07-14T15:31:37.930Z,35.91
2018-07-14T15:34:06.920Z,35.20
2018-07-14T15:36:35.542Z,34.94
2018-07-14T15:39:05.066Z,35.03
2018-07-14T15:41:33.348Z,35.08
2018-07-14T15:44:01.606Z,34.95
2018-07-14T15:46:29.762Z,34.16
2018-07-14T15:48:58.051Z,33.95
2018-07-14T15:51:26.360Z,33.59
2018-07-14T15:53:54.612Z,34.90
2018-07-14T15:56:22.742Z,34.43
2018-07-14T15:58:51.375Z,34.39
2018-07-14T16:01:19.942Z,34.08
2018-07-14T16:03:48.151Z,33.91
2018-07-14T16:06:16.255Z,36.07
2018-07-14T16:08:44.408Z,34.86
2018-07-14T16:11:12.596Z,33.90
2018-07-14T16:13:41.511Z,34.35
2018-07-14T16:16:09.687Z,34.28
2018-07-14T16:18:38.100Z,34.08
2018-07-14T16:21:06.537Z,34.22
2018-07-14T16:23:34.851Z,33.95
2018-07-14T16:26:02.965Z,33.72
2018-07-14T16:28:31.201Z,33.23
2018-07-14T16:31:00.353Z,32.79
2018-07-14T16:33:28.541Z,33.06
2018-07-14T16:35:56.774Z,32.61
2018-07-14T16:38:24.883Z,33.25
2018-07-14T16:40:52.964Z,32.98
2018-07-14T16:43:21.086Z,32.71
2018-07-14T16:45:49.143Z,32.91
2018-07-14T16:48:17.699Z,32.69
2018-07-14T16:50:45.815Z,32.66
2018-07-14T16:53:14.643Z,32.81
2018-07-14T16:55:42.959Z,32.71
2018-07-14T16:58:11.054Z,32.54
2018-07-14T17:00:39.337Z,32.56
2018-07-14T17:03:07.389Z,32.35
2018-07-14T17:05:35.459Z,32.21
2018-07-14T17:08:03.586Z,32.11
2018-07-14T17:10:31.739Z,32.21
2018-07-14T17:12:59.904Z,32.23
2018-07-14T17:15:27.958Z,32.12
2018-07-14T17:17:56.075Z,32.09
2018-07-14T17:20:24.310Z,31.29
2018-07-14T17:22:52.384Z,31.82
2018-07-14T17:25:20.564Z,32.21
2018-07-14T17:27:48.759Z,32.04
2018-07-14T17:30:17.735Z,32.08
2018-07-14T17:32:45.879Z,31.71
2018-07-14T17:35:14.410Z,31.83
2018-07-14T17:37:42.515Z,31.74
2018-07-14T17:40:10.576Z,31.81
2018-07-14T17:42:38.649Z,31.50
2018-07-14T17:45:06.986Z,31.50
2018-07-14T17:47:35.093Z,31.58
2018-07-14T17:50:03.541Z,31.41
2018-07-14T17:52:31.707Z,31.01
2018-07-14T17:54:59.776Z,30.95
2018-07-14T17:57:27.897Z,31.15
2018-07-14T17:59:56.042Z,31.28
2018-07-14T18:02:24.304Z,31.03
2018-07-14T18:04:52.446Z,31.13
2018-07-14T18:07:20.582Z,31.06
2018-07-14T18:09:48.712Z,30.83
2018-07-14T18:12:16.776Z,30.92
2018-07-14T18:14:45.607Z,30.88
2018-07-14T18:17:14.822Z,30.79
2018-07-14T18:19:42.865Z,30.75
2018-07-14T18:22:11.040Z,30.63
2018-07-14T18:24:39.292Z,30.60
2018-07-14T18:27:07.439Z,30.64
2018-07-14T18:29:35.521Z,30.64
2018-07-14T18:32:03.638Z,30.55
2018-07-14T18:34:31.771Z,30.50
2018-07-14T18:36:59.883Z,30.58
2018-07-14T18:39:27.956Z,30.35
2018-07-14T18:41:56.045Z,30.23
2018-07-14T18:44:24.501Z,30.23
2018-07-14T18:46:52.570Z,30.11
2018-07-14T18:49:20.667Z,30.20
2018-07-14T18:51:48.974Z,30.12
2018-07-14T18:54:17.093Z,29.85
2018-07-14T18:56:45.390Z,29.86
2018-07-14T18:59:14.749Z,29.87
2018-07-14T19:01:42.816Z,29.64
2018-07-14T19:04:10.902Z,29.69
2018-07-14T19:06:38.986Z,29.55
2018-07-14T19:09:07.167Z,29.50
2018-07-14T19:11:35.174Z,29.42
2018-07-14T19:14:03.324Z,29.59
2018-07-14T19:16:31.450Z,29.57
2018-07-14T19:18:59.552Z,29.35
2018-07-14T19:21:27.661Z,29.17
2018-07-14T19:23:56.241Z,29.31
2018-07-14T19:26:24.488Z,28.57
2018-07-14T19:28:52.657Z,28.70
2018-07-14T19:31:21.423Z,28.76
2018-07-14T19:33:49.597Z,28.31
2018-07-14T19:36:17.652Z,28.46
2018-07-14T19:38:45.821Z,28.61
2018-07-14T19:41:15.020Z,28.56
2018-07-14T19:43:43.102Z,28.43
2018-07-14T19:46:11.197Z,28.57
2018-07-14T19:48:51.929Z,28.47
2018-07-14T19:51:23.120Z,28.38
2018-07-14T19:53:51.293Z,28.42
2018-07-14T19:56:19.418Z,28.45
2018-07-14T19:58:47.455Z,28.49
2018-07-14T20:01:15.779Z,28.42
2018-07-14T20:03:44.085Z,28.40
2018-07-14T20:06:12.305Z,28.24
2018-07-14T20:08:43.697Z,28.26
2018-07-14T20:11:11.992Z,28.28
2018-07-14T20:13:40.160Z,28.23
2018-07-14T20:16:09.703Z,28.23
2018-07-14T20:18:38.215Z,28.20
2018-07-14T20:21:06.418Z,28.15
2018-07-14T20:23:34.693Z,28.06
2018-07-14T20:26:02.750Z,28.06
2018-07-14T20:28:30.844Z,28.03
2018-07-14T20:30:58.979Z,28.05
2018-07-14T20:33:27.124Z,28.05
2018-07-14T20:35:55.779Z,27.91
2018-07-14T20:38:23.866Z,27.89
2018-07-14T20:40:51.993Z,27.90
2018-07-14T20:43:20.054Z,27.77
2018-07-14T20:45:48.187Z,27.70
2018-07-14T20:48:16.336Z,27.65
2018-07-14T20:50:45.610Z,27.85
2018-07-14T20:53:13.735Z,27.75
2018-07-14T20:55:41.972Z,27.59
2018-07-14T20:58:10.053Z,27.55
2018-07-14T21:00:38.178Z,27.43
2018-07-14T21:03:06.475Z,27.35
2018-07-14T21:05:34.668Z,27.23
2018-07-14T21:08:02.774Z,27.28
2018-07-14T21:10:30.887Z,27.38
2018-07-14T21:12:58.980Z,27.39
2018-07-14T21:15:27.069Z,27.37
2018-07-14T21:17:55.237Z,27.52
2018-07-14T21:20:23.323Z,27.40
2018-07-14T21:22:51.883Z,27.29
2018-07-14T21:25:20.016Z,27.08
2018-07-14T21:27:48.144Z,27.12
2018-07-14T21:30:16.300Z,26.97
2018-07-14T21:32:44.371Z,27.08
2018-07-14T21:35:12.475Z,26.94
2018-07-14T21:37:40.525Z,27.07
2018-07-14T21:40:08.689Z,26.72
2018-07-14T21:42:36.723Z,27.03
2018-07-14T21:45:04.852Z,27.03
2018-07-14T21:47:32.909Z,26.83
2018-07-14T21:50:00.968Z,26.76
2018-07-14T21:52:29.510Z,26.86
2018-07-14T21:54:58.612Z,26.83
2018-07-14T21:57:26.677Z,26.63
2018-07-14T21:59:54.793Z,26.63
2018-07-14T22:02:22.864Z,26.63
2018-07-14T22:04:50.932Z,26.55
2018-07-14T22:07:19.017Z,26.66
2018-07-14T22:09:47.700Z,26.39
2018-07-14T22:12:18.983Z,26.55
2018-07-14T22:14:47.872Z,26.60
2018-07-14T22:17:15.945Z,26.45
2018-07-14T22:19:44.012Z,26.52
2018-07-14T22:22:12.100Z,26.61
2018-07-14T22:24:40.171Z,26.56
2018-07-14T22:27:08.372Z,26.47
2018-07-14T22:29:36.494Z,26.36
2018-07-14T22:32:04.596Z,26.23
2018-07-14T22:34:32.684Z,26.03
2018-07-14T22:37:00.872Z,25.92
2018-07-14T22:39:29.179Z,26.20
2018-07-14T22:41:57.321Z,26.20
2018-07-14T22:44:25.468Z,26.16
2018-07-14T22:46:53.674Z,26.07
2018-07-14T22:49:21.850Z,25.99
2018-07-14T22:51:50.046Z,25.84
2018-07-14T22:54:18.121Z,25.97
2018-07-14T22:56:46.193Z,25.90
2018-07-14T22:59:14.547Z,25.94
2018-07-14T23:01:42.842Z,26.03
2018-07-14T23:04:10.911Z,25.72
2018-07-14T23:06:39.043Z,25.86
2018-07-14T23:09:07.631Z,25.88
2018-07-14T23:11:35.787Z,25.60
2018-07-14T23:14:03.960Z,25.55
2018-07-14T23:16:32.118Z,25.46
2018-07-14T23:19:00.311Z,25.49
2018-07-14T23:21:28.418Z,25.56
2018-07-14T23:23:56.546Z,25.48
2018-07-14T23:26:24.600Z,25.50
2018-07-14T23:28:52.660Z,25.50
2018-07-14T23:31:20.753Z,25.33
2018-07-14T23:33:48.891Z,25.41
2018-07-14T23:36:17.024Z,25.45
2018-07-14T23:38:45.087Z,25.49
2018-07-14T23:41:13.190Z,25.34
2018-07-14T23:43:41.363Z,25.20
2018-07-14T23:46:09.617Z,25.30
2018-07-14T23:48:37.667Z,25.25
2018-07-14T23:51:06.103Z,25.09
2018-07-14T23:53:34.154Z,24.87
2018-07-14T23:56:02.521Z,24.97
2018-07-14T23:58:30.566Z,25.01
